sensor_id;sensor_type;location;lat;lon;timestamp;P1;durP1;ratioP1;P2;durP2;ratioP2
71288;SDS011;59068;52.502;9.860;2022-11-20T00:00:13;13.43;;;9.38;;
71288;SDS011;59068;52.502;9.860;2022-11-20T00:02:40;11.98;;;9.07;;
71288;SDS011;59068;52.502;9.860;2022-11-20T00:05:07;13.57;;;9.73;;
71288;SDS011;59068;52.502;9.860;2022-11-20T00:07:34;12.88;;;9.43;;
71288;SDS011;59068;52.502;9.860;2022-11-20T00:10:01;13.18;;;10.10;;
71288;SDS011;59068;52.502;9.860;2022-11-20T00:12:26;11.38;;;8.27;;
71288;SDS011;59068;52.502;9.860;2022-11-20T00:14:53;12.53;;;9.23;;
71288;SDS011;59068;52.502;9.860;2022-11-20T00:17:20;11.00;;;9.32;;
71288;SDS011;59068;52.502;9.860;2022-11-20T00:19:46;12.93;;;9.23;;
71288;SDS011;59068;52.502;9.860;2022-11-20T00:22:12;12.25;;;8.65;;
71288;SDS011;59068;52.502;9.860;2022-11-20T00:24:39;11.63;;;8.32;;
71288;SDS011;59068;52.502;9.860;2022-11-20T00:27:06;13.07;;;8.33;;
71288;SDS011;59068;52.502;9.860;2022-11-20T00:29:32;11.85;;;8.55;;
71288;SDS011;59068;52.502;9.860;2022-11-20T00:31:58;12.30;;;8.85;;
71288;SDS011;59068;52.502;9.860;2022-11-20T00:34:25;12.07;;;8.10;;
71288;SDS011;59068;52.502;9.860;2022-11-20T00:36:52;11.55;;;8.45;;
71288;SDS011;59068;52.502;9.860;2022-11-20T00:39:18;10.65;;;7.97;;
71288;SDS011;59068;52.502;9.860;2022-11-20T00:41:44;12.15;;;8.77;;
71288;SDS011;59068;52.502;9.860;2022-11-20T00:44:09;10.57;;;8.00;;
71288;SDS011;59068;52.502;9.860;2022-11-20T00:46:35;11.77;;;7.47;;
71288;SDS011;59068;52.502;9.860;2022-11-20T00:49:01;9.97;;;8.40;;
71288;SDS011;59068;52.502;9.860;2022-11-20T00:51:28;11.00;;;8.18;;
71288;SDS011;59068;52.502;9.860;2022-11-20T00:53:55;10.50;;;8.43;;
71288;SDS011;59068;52.502;9.860;2022-11-20T00:56:22;13.23;;;8.70;;
71288;SDS011;59068;52.502;9.860;2022-11-20T00:58:48;15.00;;;9.25;;
71288;SDS011;59068;52.502;9.860;2022-11-20T01:01:18;11.30;;;8.18;;
71288;SDS011;59068;52.502;9.860;2022-11-20T01:03:50;11.98;;;8.65;;
71288;SDS011;59068;52.502;9.860;2022-11-20T01:09:04;12.27;;;8.48;;
71288;SDS011;59068;52.502;9.860;2022-11-20T01:11:38;13.02;;;7.95;;
71288;SDS011;59068;52.502;9.860;2022-11-20T01:14:07;10.70;;;7.22;;
71288;SDS011;59068;52.502;9.860;2022-11-20T01:16:37;10.13;;;7.30;;
71288;SDS011;59068;52.502;9.860;2022-11-20T01:19:06;8.60;;;7.07;;
71288;SDS011;59068;52.502;9.860;2022-11-20T01:21:34;12.13;;;8.65;;
71288;SDS011;59068;52.502;9.860;2022-11-20T01:24:03;10.90;;;7.82;;
71288;SDS011;59068;52.502;9.860;2022-11-20T01:26:31;9.88;;;7.88;;
71288;SDS011;59068;52.502;9.860;2022-11-20T01:28:59;11.02;;;8.38;;
71288;SDS011;59068;52.502;9.860;2022-11-20T01:33:54;11.18;;;8.38;;
71288;SDS011;59068;52.502;9.860;2022-11-20T01:36:23;10.68;;;8.23;;
71288;SDS011;59068;52.502;9.860;2022-11-20T01:38:54;10.85;;;7.72;;
71288;SDS011;59068;52.502;9.860;2022-11-20T01:41:23;11.50;;;7.97;;
71288;SDS011;59068;52.502;9.860;2022-11-20T01:44:08;12.35;;;8.48;;
71288;SDS011;59068;52.502;9.860;2022-11-20T01:46:37;10.95;;;7.90;;
71288;SDS011;59068;52.502;9.860;2022-11-20T01:51:48;12.18;;;7.65;;
71288;SDS011;59068;52.502;9.860;2022-11-20T01:54:39;8.98;;;6.88;;
71288;SDS011;59068;52.502;9.860;2022-11-20T01:57:25;9.98;;;7.63;;
71288;SDS011;59068;52.502;9.860;2022-11-20T01:59:59;10.70;;;8.48;;
71288;SDS011;59068;52.502;9.860;2022-11-20T02:02:27;10.32;;;7.10;;
71288;SDS011;59068;52.502;9.860;2022-11-20T02:04:54;10.05;;;8.00;;
71288;SDS011;59068;52.502;9.860;2022-11-20T02:07:22;8.63;;;7.75;;
71288;SDS011;59068;52.502;9.860;2022-11-20T02:09:48;8.53;;;7.33;;
71288;SDS011;59068;52.502;9.860;2022-11-20T02:12:16;9.45;;;7.78;;
71288;SDS011;59068;52.502;9.860;2022-11-20T02:15:01;11.25;;;7.60;;
71288;SDS011;59068;52.502;9.860;2022-11-20T02:17:27;9.05;;;7.03;;
71288;SDS011;59068;52.502;9.860;2022-11-20T02:19:54;10.55;;;7.40;;
71288;SDS011;59068;52.502;9.860;2022-11-20T02:22:31;11.52;;;7.40;;
71288;SDS011;59068;52.502;9.860;2022-11-20T02:25:04;11.18;;;8.18;;
71288;SDS011;59068;52.502;9.860;2022-11-20T02:27:32;10.23;;;7.20;;
71288;SDS011;59068;52.502;9.860;2022-11-20T02:30:03;10.37;;;8.03;;
71288;SDS011;59068;52.502;9.860;2022-11-20T02:32:32;8.82;;;7.40;;
71288;SDS011;59068;52.502;9.860;2022-11-20T02:35:08;10.10;;;7.32;;
71288;SDS011;59068;52.502;9.860;2022-11-20T02:37:37;8.73;;;7.18;;
71288;SDS011;59068;52.502;9.860;2022-11-20T02:40:05;9.07;;;6.85;;
71288;SDS011;59068;52.502;9.860;2022-11-20T02:42:32;9.63;;;7.18;;
71288;SDS011;59068;52.502;9.860;2022-11-20T02:44:57;9.68;;;7.47;;
71288;SDS011;59068;52.502;9.860;2022-11-20T02:47:24;9.33;;;7.50;;
71288;SDS011;59068;52.502;9.860;2022-11-20T02:49:50;9.68;;;7.63;;
71288;SDS011;59068;52.502;9.860;2022-11-20T02:52:17;10.98;;;8.02;;
71288;SDS011;59068;52.502;9.860;2022-11-20T02:54:43;10.05;;;7.97;;
71288;SDS011;59068;52.502;9.860;2022-11-20T02:57:09;8.88;;;7.32;;
71288;SDS011;59068;52.502;9.860;2022-11-20T02:59:36;10.10;;;8.65;;
71288;SDS011;59068;52.502;9.860;2022-11-20T03:02:02;10.18;;;8.20;;
71288;SDS011;59068;52.502;9.860;2022-11-20T03:04:28;12.90;;;8.68;;
71288;SDS011;59068;52.502;9.860;2022-11-20T03:06:55;9.07;;;7.40;;
71288;SDS011;59068;52.502;9.860;2022-11-20T03:09:21;10.63;;;8.30;;
71288;SDS011;59068;52.502;9.860;2022-11-20T03:11:47;8.68;;;6.82;;
71288;SDS011;59068;52.502;9.860;2022-11-20T03:14:12;10.63;;;7.70;;
71288;SDS011;59068;52.502;9.860;2022-11-20T03:16:40;10.32;;;7.80;;
71288;SDS011;59068;52.502;9.860;2022-11-20T03:19:05;8.80;;;7.07;;
71288;SDS011;59068;52.502;9.860;2022-11-20T03:21:35;8.33;;;7.17;;
71288;SDS011;59068;52.502;9.860;2022-11-20T03:24:02;8.65;;;7.30;;
71288;SDS011;59068;52.502;9.860;2022-11-20T03:26:29;8.57;;;7.47;;
71288;SDS011;59068;52.502;9.860;2022-11-20T03:28:55;11.65;;;7.55;;
71288;SDS011;59068;52.502;9.860;2022-11-20T03:31:24;10.65;;;8.38;;
71288;SDS011;59068;52.502;9.860;2022-11-20T03:33:59;10.10;;;7.57;;
71288;SDS011;59068;52.502;9.860;2022-11-20T03:36:26;10.95;;;8.38;;
71288;SDS011;59068;52.502;9.860;2022-11-20T03:38:54;9.75;;;7.63;;
71288;SDS011;59068;52.502;9.860;2022-11-20T03:41:22;9.57;;;7.55;;
71288;SDS011;59068;52.502;9.860;2022-11-20T03:44:00;11.50;;;7.07;;
71288;SDS011;59068;52.502;9.860;2022-11-20T03:46:28;11.27;;;7.18;;
71288;SDS011;59068;52.502;9.860;2022-11-20T03:48:54;10.38;;;7.75;;
71288;SDS011;59068;52.502;9.860;2022-11-20T03:51:24;10.60;;;7.70;;
71288;SDS011;59068;52.502;9.860;2022-11-20T03:53:53;7.63;;;6.55;;
71288;SDS011;59068;52.502;9.860;2022-11-20T03:56:24;9.90;;;7.30;;
71288;SDS011;59068;52.502;9.860;2022-11-20T03:58:52;8.75;;;7.25;;
71288;SDS011;59068;52.502;9.860;2022-11-20T04:01:20;10.20;;;7.85;;
71288;SDS011;59068;52.502;9.860;2022-11-20T04:03:48;10.02;;;7.78;;
71288;SDS011;59068;52.502;9.860;2022-11-20T04:08:49;9.82;;;7.05;;
71288;SDS011;59068;52.502;9.860;2022-11-20T04:11:16;9.75;;;6.68;;
71288;SDS011;59068;52.502;9.860;2022-11-20T04:13:49;7.65;;;6.45;;
71288;SDS011;59068;52.502;9.860;2022-11-20T04:16:21;10.20;;;7.20;;
71288;SDS011;59068;52.502;9.860;2022-11-20T04:18:51;9.60;;;7.13;;
71288;SDS011;59068;52.502;9.860;2022-11-20T04:21:22;8.95;;;6.68;;
71288;SDS011;59068;52.502;9.860;2022-11-20T04:23:50;8.00;;;6.30;;
71288;SDS011;59068;52.502;9.860;2022-11-20T04:26:17;9.50;;;7.18;;
71288;SDS011;59068;52.502;9.860;2022-11-20T04:28:44;11.35;;;6.55;;
71288;SDS011;59068;52.502;9.860;2022-11-20T04:31:17;9.85;;;7.03;;
71288;SDS011;59068;52.502;9.860;2022-11-20T04:33:46;8.45;;;6.72;;
71288;SDS011;59068;52.502;9.860;2022-11-20T04:36:16;8.77;;;6.93;;
71288;SDS011;59068;52.502;9.860;2022-11-20T04:38:49;8.85;;;7.00;;
71288;SDS011;59068;52.502;9.860;2022-11-20T04:41:18;10.25;;;7.20;;
71288;SDS011;59068;52.502;9.860;2022-11-20T04:43:50;9.05;;;7.07;;
71288;SDS011;59068;52.502;9.860;2022-11-20T04:46:18;7.45;;;6.45;;
71288;SDS011;59068;52.502;9.860;2022-11-20T04:48:46;7.88;;;7.05;;
71288;SDS011;59068;52.502;9.860;2022-11-20T04:51:13;9.02;;;7.35;;
71288;SDS011;59068;52.502;9.860;2022-11-20T04:53:40;10.27;;;6.78;;
71288;SDS011;59068;52.502;9.860;2022-11-20T04:56:06;8.43;;;6.43;;
71288;SDS011;59068;52.502;9.860;2022-11-20T04:58:34;9.85;;;6.30;;
71288;SDS011;59068;52.502;9.860;2022-11-20T05:03:29;6.40;;;5.75;;
71288;SDS011;59068;52.502;9.860;2022-11-20T05:05:55;7.65;;;6.22;;
71288;SDS011;59068;52.502;9.860;2022-11-20T05:08:22;8.70;;;6.70;;
71288;SDS011;59068;52.502;9.860;2022-11-20T05:10:47;8.75;;;6.57;;
71288;SDS011;59068;52.502;9.860;2022-11-20T05:13:14;8.23;;;6.00;;
71288;SDS011;59068;52.502;9.860;2022-11-20T05:15:40;7.97;;;6.20;;
71288;SDS011;59068;52.502;9.860;2022-11-20T05:18:05;7.18;;;6.13;;
71288;SDS011;59068;52.502;9.860;2022-11-20T05:20:31;7.97;;;6.83;;
71288;SDS011;59068;52.502;9.860;2022-11-20T05:22:57;8.30;;;6.37;;
71288;SDS011;59068;52.502;9.860;2022-11-20T05:25:23;10.05;;;6.22;;
71288;SDS011;59068;52.502;9.860;2022-11-20T05:27:49;7.83;;;6.47;;
71288;SDS011;59068;52.502;9.860;2022-11-20T05:30:16;6.85;;;6.03;;
71288;SDS011;59068;52.502;9.860;2022-11-20T05:32:42;7.80;;;6.10;;
71288;SDS011;59068;52.502;9.860;2022-11-20T05:35:09;6.97;;;6.10;;
71288;SDS011;59068;52.502;9.860;2022-11-20T05:37:35;8.05;;;6.20;;
71288;SDS011;59068;52.502;9.860;2022-11-20T05:40:01;8.05;;;6.22;;
71288;SDS011;59068;52.502;9.860;2022-11-20T05:42:30;8.47;;;5.63;;
71288;SDS011;59068;52.502;9.860;2022-11-20T05:44:56;8.70;;;6.03;;
71288;SDS011;59068;52.502;9.860;2022-11-20T05:47:24;8.23;;;6.05;;
71288;SDS011;59068;52.502;9.860;2022-11-20T05:49:49;7.68;;;5.88;;
71288;SDS011;59068;52.502;9.860;2022-11-20T05:52:15;7.07;;;6.13;;
71288;SDS011;59068;52.502;9.860;2022-11-20T05:54:40;10.20;;;6.60;;
71288;SDS011;59068;52.502;9.860;2022-11-20T05:57:07;7.37;;;5.60;;
71288;SDS011;59068;52.502;9.860;2022-11-20T05:59:33;7.30;;;5.43;;
71288;SDS011;59068;52.502;9.860;2022-11-20T06:01:59;7.75;;;6.15;;
71288;SDS011;59068;52.502;9.860;2022-11-20T06:04:26;7.17;;;5.87;;
71288;SDS011;59068;52.502;9.860;2022-11-20T06:06:51;7.38;;;5.72;;
71288;SDS011;59068;52.502;9.860;2022-11-20T06:09:18;7.53;;;6.17;;
71288;SDS011;59068;52.502;9.860;2022-11-20T06:11:44;6.30;;;5.53;;
71288;SDS011;59068;52.502;9.860;2022-11-20T06:14:11;7.07;;;6.20;;
71288;SDS011;59068;52.502;9.860;2022-11-20T06:16:37;6.40;;;5.60;;
71288;SDS011;59068;52.502;9.860;2022-11-20T06:19:04;7.32;;;5.63;;
71288;SDS011;59068;52.502;9.860;2022-11-20T06:21:30;7.65;;;5.90;;
71288;SDS011;59068;52.502;9.860;2022-11-20T06:23:55;7.13;;;6.03;;
71288;SDS011;59068;52.502;9.860;2022-11-20T06:26:23;6.83;;;5.97;;
71288;SDS011;59068;52.502;9.860;2022-11-20T06:28:50;8.00;;;5.80;;
71288;SDS011;59068;52.502;9.860;2022-11-20T06:31:18;8.48;;;5.43;;
71288;SDS011;59068;52.502;9.860;2022-11-20T06:33:46;8.90;;;6.20;;
71288;SDS011;59068;52.502;9.860;2022-11-20T06:36:12;9.80;;;6.90;;
71288;SDS011;59068;52.502;9.860;2022-11-20T06:38:40;9.35;;;6.55;;
71288;SDS011;59068;52.502;9.860;2022-11-20T06:41:07;7.55;;;6.68;;
71288;SDS011;59068;52.502;9.860;2022-11-20T06:43:36;6.95;;;6.05;;
71288;SDS011;59068;52.502;9.860;2022-11-20T06:46:01;7.43;;;5.22;;
71288;SDS011;59068;52.502;9.860;2022-11-20T06:48:29;8.37;;;5.67;;
71288;SDS011;59068;52.502;9.860;2022-11-20T06:50:56;6.85;;;5.53;;
71288;SDS011;59068;52.502;9.860;2022-11-20T06:53:23;7.07;;;5.82;;
71288;SDS011;59068;52.502;9.860;2022-11-20T06:55:50;8.48;;;5.85;;
71288;SDS011;59068;52.502;9.860;2022-11-20T06:58:17;9.00;;;6.45;;
71288;SDS011;59068;52.502;9.860;2022-11-20T07:00:44;8.32;;;6.55;;
71288;SDS011;59068;52.502;9.860;2022-11-20T07:03:11;7.38;;;6.15;;
71288;SDS011;59068;52.502;9.860;2022-11-20T07:05:37;5.68;;;5.13;;
71288;SDS011;59068;52.502;9.860;2022-11-20T07:08:06;6.97;;;5.50;;
71288;SDS011;59068;52.502;9.860;2022-11-20T07:10:31;6.40;;;5.50;;
71288;SDS011;59068;52.502;9.860;2022-11-20T07:12:58;6.13;;;5.53;;
71288;SDS011;59068;52.502;9.860;2022-11-20T07:15:25;6.50;;;5.10;;
71288;SDS011;59068;52.502;9.860;2022-11-20T07:17:52;6.40;;;5.05;;
71288;SDS011;59068;52.502;9.860;2022-11-20T07:20:19;8.30;;;6.30;;
71288;SDS011;59068;52.502;9.860;2022-11-20T07:22:44;7.97;;;5.35;;
71288;SDS011;59068;52.502;9.860;2022-11-20T07:25:10;7.50;;;5.50;;
71288;SDS011;59068;52.502;9.860;2022-11-20T07:27:37;8.68;;;5.43;;
71288;SDS011;59068;52.502;9.860;2022-11-20T07:30:02;6.95;;;5.45;;
71288;SDS011;59068;52.502;9.860;2022-11-20T07:32:30;6.55;;;5.30;;
71288;SDS011;59068;52.502;9.860;2022-11-20T07:34:56;7.25;;;5.30;;
71288;SDS011;59068;52.502;9.860;2022-11-20T07:37:22;6.10;;;5.40;;
71288;SDS011;59068;52.502;9.860;2022-11-20T07:39:49;8.60;;;5.85;;
71288;SDS011;59068;52.502;9.860;2022-11-20T07:42:16;6.50;;;5.47;;
71288;SDS011;59068;52.502;9.860;2022-11-20T07:44:42;8.60;;;5.70;;
71288;SDS011;59068;52.502;9.860;2022-11-20T07:47:08;7.00;;;5.50;;
71288;SDS011;59068;52.502;9.860;2022-11-20T07:49:34;5.93;;;5.07;;
71288;SDS011;59068;52.502;9.860;2022-11-20T07:52:00;6.63;;;5.78;;
71288;SDS011;59068;52.502;9.860;2022-11-20T07:54:26;7.00;;;5.40;;
71288;SDS011;59068;52.502;9.860;2022-11-20T07:56:53;9.50;;;5.65;;
71288;SDS011;59068;52.502;9.860;2022-11-20T07:59:19;7.20;;;6.07;;
71288;SDS011;59068;52.502;9.860;2022-11-20T08:01:46;6.40;;;5.43;;
71288;SDS011;59068;52.502;9.860;2022-11-20T08:04:11;7.15;;;6.13;;
71288;SDS011;59068;52.502;9.860;2022-11-20T08:06:38;8.37;;;6.10;;
71288;SDS011;59068;52.502;9.860;2022-11-20T08:09:03;7.40;;;5.60;;
71288;SDS011;59068;52.502;9.860;2022-11-20T08:11:30;6.40;;;5.67;;
71288;SDS011;59068;52.502;9.860;2022-11-20T08:14:14;8.07;;;5.78;;
71288;SDS011;59068;52.502;9.860;2022-11-20T08:19:25;7.25;;;5.63;;
71288;SDS011;59068;52.502;9.860;2022-11-20T08:21:52;8.27;;;5.60;;
71288;SDS011;59068;52.502;9.860;2022-11-20T08:24:18;9.00;;;6.15;;
71288;SDS011;59068;52.502;9.860;2022-11-20T08:26:45;6.68;;;5.97;;
71288;SDS011;59068;52.502;9.860;2022-11-20T08:29:11;6.82;;;5.10;;
71288;SDS011;59068;52.502;9.860;2022-11-20T08:31:38;6.82;;;5.85;;
71288;SDS011;59068;52.502;9.860;2022-11-20T08:34:04;8.43;;;6.07;;
71288;SDS011;59068;52.502;9.860;2022-11-20T08:36:32;7.73;;;5.90;;
71288;SDS011;59068;52.502;9.860;2022-11-20T08:38:59;7.18;;;6.00;;
71288;SDS011;59068;52.502;9.860;2022-11-20T08:41:25;10.17;;;6.23;;
71288;SDS011;59068;52.502;9.860;2022-11-20T08:46:42;7.75;;;6.07;;
71288;SDS011;59068;52.502;9.860;2022-11-20T08:49:10;9.40;;;6.78;;
71288;SDS011;59068;52.502;9.860;2022-11-20T08:51:37;8.75;;;6.80;;
71288;SDS011;59068;52.502;9.860;2022-11-20T08:54:03;7.32;;;5.50;;
71288;SDS011;59068;52.502;9.860;2022-11-20T08:56:31;6.90;;;5.65;;
71288;SDS011;59068;52.502;9.860;2022-11-20T08:58:57;8.25;;;5.95;;
71288;SDS011;59068;52.502;9.860;2022-11-20T09:01:26;7.30;;;6.15;;
71288;SDS011;59068;52.502;9.860;2022-11-20T09:03:51;9.00;;;6.78;;
71288;SDS011;59068;52.502;9.860;2022-11-20T09:06:18;7.13;;;6.17;;
71288;SDS011;59068;52.502;9.860;2022-11-20T09:08:44;7.72;;;6.30;;
71288;SDS011;59068;52.502;9.860;2022-11-20T09:11:11;9.68;;;6.50;;
71288;SDS011;59068;52.502;9.860;2022-11-20T09:13:37;7.07;;;5.95;;
71288;SDS011;59068;52.502;9.860;2022-11-20T09:16:04;6.90;;;6.15;;
71288;SDS011;59068;52.502;9.860;2022-11-20T09:18:31;7.30;;;5.72;;
71288;SDS011;59068;52.502;9.860;2022-11-20T09:20:58;7.00;;;5.22;;
71288;SDS011;59068;52.502;9.860;2022-11-20T09:23:26;6.63;;;5.68;;
71288;SDS011;59068;52.502;9.860;2022-11-20T09:25:53;8.50;;;6.40;;
71288;SDS011;59068;52.502;9.860;2022-11-20T09:28:22;7.60;;;5.90;;
71288;SDS011;59068;52.502;9.860;2022-11-20T09:30:49;8.73;;;6.88;;
71288;SDS011;59068;52.502;9.860;2022-11-20T09:33:16;7.85;;;6.47;;
71288;SDS011;59068;52.502;9.860;2022-11-20T09:35:43;10.07;;;7.10;;
71288;SDS011;59068;52.502;9.860;2022-11-20T09:38:08;7.93;;;6.22;;
71288;SDS011;59068;52.502;9.860;2022-11-20T09:40:38;7.80;;;6.05;;
71288;SDS011;59068;52.502;9.860;2022-11-20T09:45:47;9.68;;;7.95;;
71288;SDS011;59068;52.502;9.860;2022-11-20T09:54:16;6.13;;;5.10;;
71288;SDS011;59068;52.502;9.860;2022-11-20T09:56:45;7.15;;;5.60;;
71288;SDS011;59068;52.502;9.860;2022-11-20T09:59:19;8.05;;;5.88;;
71288;SDS011;59068;52.502;9.860;2022-11-20T10:02:12;6.20;;;5.22;;
71288;SDS011;59068;52.502;9.860;2022-11-20T10:05:03;6.47;;;5.30;;
71288;SDS011;59068;52.502;9.860;2022-11-20T10:25:39;7.53;;;5.45;;
71288;SDS011;59068;52.502;9.860;2022-11-20T10:30:43;5.93;;;5.32;;
71288;SDS011;59068;52.502;9.860;2022-11-20T10:33:13;7.22;;;5.80;;
71288;SDS011;59068;52.502;9.860;2022-11-20T10:35:45;6.43;;;5.72;;
71288;SDS011;59068;52.502;9.860;2022-11-20T10:41:46;8.00;;;5.78;;
71288;SDS011;59068;52.502;9.860;2022-11-20T10:44:15;7.07;;;5.20;;
71288;SDS011;59068;52.502;9.860;2022-11-20T10:47:08;6.88;;;5.40;;
71288;SDS011;59068;52.502;9.860;2022-11-20T10:49:38;5.88;;;5.00;;
71288;SDS011;59068;52.502;9.860;2022-11-20T10:52:14;6.47;;;4.97;;
71288;SDS011;59068;52.502;9.860;2022-11-20T11:01:17;6.20;;;5.60;;
71288;SDS011;59068;52.502;9.860;2022-11-20T11:03:47;8.32;;;5.82;;
71288;SDS011;59068;52.502;9.860;2022-11-20T11:09:21;6.00;;;5.10;;
71288;SDS011;59068;52.502;9.860;2022-11-20T11:11:52;6.93;;;5.97;;
71288;SDS011;59068;52.502;9.860;2022-11-20T11:14:19;7.75;;;6.38;;
71288;SDS011;59068;52.502;9.860;2022-11-20T11:16:50;8.60;;;6.65;;
71288;SDS011;59068;52.502;9.860;2022-11-20T11:19:18;8.35;;;6.18;;
71288;SDS011;59068;52.502;9.860;2022-11-20T11:21:52;6.28;;;5.47;;
71288;SDS011;59068;52.502;9.860;2022-11-20T11:24:24;7.38;;;6.25;;
71288;SDS011;59068;52.502;9.860;2022-11-20T11:29:39;6.90;;;6.15;;
71288;SDS011;59068;52.502;9.860;2022-11-20T11:34:32;6.10;;;5.50;;
71288;SDS011;59068;52.502;9.860;2022-11-20T11:36:59;5.57;;;5.07;;
71288;SDS011;59068;52.502;9.860;2022-11-20T11:39:27;7.43;;;6.73;;
71288;SDS011;59068;52.502;9.860;2022-11-20T11:41:55;6.00;;;5.40;;
71288;SDS011;59068;52.502;9.860;2022-11-20T11:44:30;5.53;;;4.93;;
71288;SDS011;59068;52.502;9.860;2022-11-20T11:47:21;6.38;;;5.50;;
71288;SDS011;59068;52.502;9.860;2022-11-20T11:50:00;7.93;;;6.45;;
71288;SDS011;59068;52.502;9.860;2022-11-20T11:52:56;6.95;;;6.00;;
71288;SDS011;59068;52.502;9.860;2022-11-20T12:01:22;8.20;;;6.35;;
71288;SDS011;59068;52.502;9.860;2022-11-20T12:07:10;7.30;;;5.72;;
71288;SDS011;59068;52.502;9.860;2022-11-20T12:09:57;7.30;;;5.93;;
71288;SDS011;59068;52.502;9.860;2022-11-20T12:12:36;6.35;;;5.07;;
71288;SDS011;59068;52.502;9.860;2022-11-20T12:15:09;8.45;;;6.28;;
71288;SDS011;59068;52.502;9.860;2022-11-20T12:17:38;6.22;;;4.68;;
71288;SDS011;59068;52.502;9.860;2022-11-20T12:20:10;6.60;;;5.30;;
71288;SDS011;59068;52.502;9.860;2022-11-20T12:22:46;6.85;;;4.72;;
71288;SDS011;59068;52.502;9.860;2022-11-20T12:28:04;7.38;;;6.03;;
71288;SDS011;59068;52.502;9.860;2022-11-20T12:31:01;8.27;;;6.65;;
71288;SDS011;59068;52.502;9.860;2022-11-20T12:56:21;7.68;;;6.28;;
71288;SDS011;59068;52.502;9.860;2022-11-20T13:08:41;7.85;;;6.82;;
71288;SDS011;59068;52.502;9.860;2022-11-20T13:19:27;8.23;;;6.60;;
71288;SDS011;59068;52.502;9.860;2022-11-20T13:21:55;9.07;;;7.20;;
71288;SDS011;59068;52.502;9.860;2022-11-20T13:29:34;11.38;;;7.20;;
71288;SDS011;59068;52.502;9.860;2022-11-20T13:32:06;22.73;;;18.77;;
71288;SDS011;59068;52.502;9.860;2022-11-20T13:34:39;10.25;;;9.05;;
71288;SDS011;59068;52.502;9.860;2022-11-20T13:37:37;12.32;;;9.20;;
71288;SDS011;59068;52.502;9.860;2022-11-20T13:42:35;15.10;;;10.63;;
71288;SDS011;59068;52.502;9.860;2022-11-20T13:45:09;12.75;;;9.75;;
71288;SDS011;59068;52.502;9.860;2022-11-20T13:47:36;10.15;;;8.18;;
71288;SDS011;59068;52.502;9.860;2022-11-20T13:50:03;11.00;;;9.63;;
71288;SDS011;59068;52.502;9.860;2022-11-20T14:01:23;10.68;;;7.75;;
71288;SDS011;59068;52.502;9.860;2022-11-20T14:03:49;10.70;;;8.10;;
71288;SDS011;59068;52.502;9.860;2022-11-20T14:09:10;10.32;;;7.22;;
71288;SDS011;59068;52.502;9.860;2022-11-20T14:11:55;10.88;;;7.75;;
71288;SDS011;59068;52.502;9.860;2022-11-20T14:14:29;9.57;;;7.78;;
71288;SDS011;59068;52.502;9.860;2022-11-20T14:17:17;9.20;;;7.63;;
71288;SDS011;59068;52.502;9.860;2022-11-20T14:20:06;12.80;;;9.00;;
71288;SDS011;59068;52.502;9.860;2022-11-20T14:22:37;11.10;;;8.70;;
71288;SDS011;59068;52.502;9.860;2022-11-20T14:27:41;9.68;;;7.97;;
71288;SDS011;59068;52.502;9.860;2022-11-20T14:30:23;9.32;;;8.00;;
71288;SDS011;59068;52.502;9.860;2022-11-20T14:32:54;10.75;;;8.75;;
71288;SDS011;59068;52.502;9.860;2022-11-20T14:35:25;10.82;;;7.93;;
71288;SDS011;59068;52.502;9.860;2022-11-20T14:37:53;8.10;;;6.80;;
71288;SDS011;59068;52.502;9.860;2022-11-20T14:46:03;11.18;;;9.27;;
71288;SDS011;59068;52.502;9.860;2022-11-20T14:48:32;10.88;;;7.95;;
71288;SDS011;59068;52.502;9.860;2022-11-20T14:51:00;9.95;;;8.95;;
71288;SDS011;59068;52.502;9.860;2022-11-20T14:53:27;10.20;;;8.60;;
71288;SDS011;59068;52.502;9.860;2022-11-20T14:55:57;12.15;;;9.30;;
71288;SDS011;59068;52.502;9.860;2022-11-20T14:58:30;10.60;;;9.50;;
71288;SDS011;59068;52.502;9.860;2022-11-20T15:01:01;11.20;;;9.57;;
71288;SDS011;59068;52.502;9.860;2022-11-20T15:03:36;9.35;;;8.00;;
71288;SDS011;59068;52.502;9.860;2022-11-20T15:06:02;9.50;;;7.60;;
71288;SDS011;59068;52.502;9.860;2022-11-20T15:08:28;9.00;;;8.07;;
71288;SDS011;59068;52.502;9.860;2022-11-20T15:10:57;10.37;;;8.07;;
71288;SDS011;59068;52.502;9.860;2022-11-20T15:16:25;9.20;;;8.05;;
71288;SDS011;59068;52.502;9.860;2022-11-20T15:18:54;8.97;;;7.30;;
71288;SDS011;59068;52.502;9.860;2022-11-20T15:21:21;7.97;;;7.03;;
71288;SDS011;59068;52.502;9.860;2022-11-20T15:23:48;9.23;;;7.97;;
71288;SDS011;59068;52.502;9.860;2022-11-20T15:26:23;11.60;;;9.25;;
71288;SDS011;59068;52.502;9.860;2022-11-20T15:28:50;13.02;;;11.68;;
71288;SDS011;59068;52.502;9.860;2022-11-20T15:31:19;11.27;;;10.10;;
71288;SDS011;59068;52.502;9.860;2022-11-20T15:33:47;10.33;;;9.23;;
71288;SDS011;59068;52.502;9.860;2022-11-20T15:36:12;10.03;;;9.03;;
71288;SDS011;59068;52.502;9.860;2022-11-20T15:38:39;10.23;;;8.30;;
71288;SDS011;59068;52.502;9.860;2022-11-20T15:41:06;9.27;;;8.37;;
71288;SDS011;59068;52.502;9.860;2022-11-20T15:43:31;10.47;;;9.33;;
71288;SDS011;59068;52.502;9.860;2022-11-20T15:45:59;10.57;;;8.70;;
71288;SDS011;59068;52.502;9.860;2022-11-20T15:48:35;11.47;;;9.80;;
71288;SDS011;59068;52.502;9.860;2022-11-20T15:51:06;12.27;;;10.85;;
71288;SDS011;59068;52.502;9.860;2022-11-20T15:53:40;14.18;;;11.13;;
71288;SDS011;59068;52.502;9.860;2022-11-20T15:56:09;15.80;;;12.87;;
71288;SDS011;59068;52.502;9.860;2022-11-20T15:58:38;15.90;;;14.00;;
71288;SDS011;59068;52.502;9.860;2022-11-20T16:01:04;15.20;;;12.23;;
71288;SDS011;59068;52.502;9.860;2022-11-20T16:03:30;14.33;;;11.67;;
71288;SDS011;59068;52.502;9.860;2022-11-20T16:05:57;12.17;;;10.77;;
71288;SDS011;59068;52.502;9.860;2022-11-20T16:08:24;12.88;;;10.65;;
71288;SDS011;59068;52.502;9.860;2022-11-20T16:10:50;11.93;;;10.40;;
71288;SDS011;59068;52.502;9.860;2022-11-20T16:13:17;13.73;;;10.85;;
71288;SDS011;59068;52.502;9.860;2022-11-20T16:16:04;13.80;;;11.60;;
71288;SDS011;59068;52.502;9.860;2022-11-20T16:18:32;16.30;;;14.00;;
71288;SDS011;59068;52.502;9.860;2022-11-20T16:20:59;16.37;;;14.60;;
71288;SDS011;59068;52.502;9.860;2022-11-20T16:23:25;17.35;;;14.32;;
71288;SDS011;59068;52.502;9.860;2022-11-20T16:25:52;15.15;;;9.80;;
71288;SDS011;59068;52.502;9.860;2022-11-20T16:28:19;18.63;;;14.67;;
71288;SDS011;59068;52.502;9.860;2022-11-20T16:30:46;12.68;;;11.38;;
71288;SDS011;59068;52.502;9.860;2022-11-20T16:33:16;11.50;;;9.57;;
71288;SDS011;59068;52.502;9.860;2022-11-20T16:35:43;10.27;;;8.50;;
71288;SDS011;59068;52.502;9.860;2022-11-20T16:38:09;9.00;;;7.95;;
71288;SDS011;59068;52.502;9.860;2022-11-20T16:40:36;9.40;;;8.13;;
71288;SDS011;59068;52.502;9.860;2022-11-20T16:43:06;9.73;;;8.02;;
71288;SDS011;59068;52.502;9.860;2022-11-20T16:45:44;10.00;;;8.48;;
71288;SDS011;59068;52.502;9.860;2022-11-20T16:48:13;10.50;;;8.45;;
71288;SDS011;59068;52.502;9.860;2022-11-20T16:50:51;11.40;;;8.57;;
71288;SDS011;59068;52.502;9.860;2022-11-20T16:53:18;20.30;;;14.77;;
71288;SDS011;59068;52.502;9.860;2022-11-20T16:55:46;19.83;;;14.32;;
71288;SDS011;59068;52.502;9.860;2022-11-20T16:58:13;22.50;;;14.68;;
71288;SDS011;59068;52.502;9.860;2022-11-20T17:00:39;22.52;;;16.23;;
71288;SDS011;59068;52.502;9.860;2022-11-20T17:03:06;16.15;;;13.73;;
71288;SDS011;59068;52.502;9.860;2022-11-20T17:05:33;18.33;;;13.88;;
71288;SDS011;59068;52.502;9.860;2022-11-20T17:07:59;17.40;;;14.47;;
71288;SDS011;59068;52.502;9.860;2022-11-20T17:10:27;20.47;;;15.90;;
71288;SDS011;59068;52.502;9.860;2022-11-20T17:12:52;23.27;;;17.65;;
71288;SDS011;59068;52.502;9.860;2022-11-20T17:15:19;18.70;;;15.40;;
71288;SDS011;59068;52.502;9.860;2022-11-20T17:17:46;17.30;;;15.35;;
71288;SDS011;59068;52.502;9.860;2022-11-20T17:20:11;15.63;;;13.93;;